Terminal Aerodrome Forecast
Issued by NWS

Home | Current Version | Previous Version | Text Only | Print | Product List | Glossary On
Versions: 1 2 3 4 5 6 7 8 9 10 11 12
000
FTAK31 PAFA 052329
TAFAOM
TAF
PAOM 052329Z 0600/0624 16007KT P6SM SCT030 SCT090
     FM060600 35005KT P6SM SCT050 BKN100 BKN200=

USA.gov is the U.S. government's official web portal to all federal, state and local government web resources and services.